Terminal Aerodrome Forecast
Issued by NWS Charleston, WV

Current Version | Previous Version | Graphics & Text | Print | Product List | Glossary On
Versions: 1 2 3 4 5 6 7 8 9 10 11 12 13 14 15 16 17 18 19 20 21 22 23 24 25 26
000
FTUS41 KRLX 151400 AAB
TAFEKN
TAF AMD
KEKN 151429Z 1514/1612 28008G18KT 6SM -SHRA SCT008 OVC015
     FM151600 30012G22KT 6SM -SHRA OVC010
     FM151800 31013G23KT 6SM -SHRASN OVC015
     FM152000 31014G24KT 6SM -SHRASN OVC022
     FM152300 31015G25KT P6SM OVC030
     FM160700 31009KT P6SM SCT040=

USA.gov is the U.S. government's official web portal to all federal, state and local government web resources and services.